sensor_id;sensor_type;location;lat;lon;timestamp;pressure;altitude;pressure_sealevel;temperature;humidity
71476;BME280;59286;59.274;17.974;2023-08-31T00:00:43;100147.88;;;12.16;100.00
71476;BME280;59286;59.274;17.974;2023-08-31T00:03:10;100147.25;;;12.19;100.00
71476;BME280;59286;59.274;17.974;2023-08-31T00:05:42;100130.84;;;12.22;100.00
71476;BME280;59286;59.274;17.974;2023-08-31T00:08:09;100133.13;;;12.32;100.00
71476;BME280;59286;59.274;17.974;2023-08-31T00:10:35;100137.38;;;12.45;100.00
71476;BME280;59286;59.274;17.974;2023-08-31T00:13:04;100125.63;;;12.42;100.00
71476;BME280;59286;59.274;17.974;2023-08-31T00:15:31;100133.31;;;12.56;100.00
71476;BME280;59286;59.274;17.974;2023-08-31T00:17:59;100128.97;;;12.60;100.00
71476;BME280;59286;59.274;17.974;2023-08-31T00:20:24;100126.25;;;12.68;100.00
71476;BME280;59286;59.274;17.974;2023-08-31T00:22:50;100135.66;;;12.78;100.00
71476;BME280;59286;59.274;17.974;2023-08-31T00:25:15;100141.94;;;12.86;100.00
71476;BME280;59286;59.274;17.974;2023-08-31T00:27:41;100126.22;;;12.77;100.00
71476;BME280;59286;59.274;17.974;2023-08-31T00:30:07;100142.16;;;13.01;100.00
71476;BME280;59286;59.274;17.974;2023-08-31T00:32:34;100145.06;;;13.08;100.00
71476;BME280;59286;59.274;17.974;2023-08-31T00:35:00;100131.56;;;13.10;100.00
71476;BME280;59286;59.274;17.974;2023-08-31T00:37:25;100127.53;;;13.12;100.00
71476;BME280;59286;59.274;17.974;2023-08-31T00:39:50;100131.94;;;13.20;100.00
71476;BME280;59286;59.274;17.974;2023-08-31T00:42:18;100127.00;;;13.19;100.00
71476;BME280;59286;59.274;17.974;2023-08-31T00:44:43;100114.63;;;13.19;100.00
71476;BME280;59286;59.274;17.974;2023-08-31T00:47:09;100120.13;;;13.26;100.00
71476;BME280;59286;59.274;17.974;2023-08-31T00:49:34;100111.78;;;13.24;100.00
71476;BME280;59286;59.274;17.974;2023-08-31T00:52:00;100117.06;;;13.24;100.00
71476;BME280;59286;59.274;17.974;2023-08-31T00:54:25;100115.97;;;13.25;100.00
71476;BME280;59286;59.274;17.974;2023-08-31T00:56:55;100116.66;;;13.34;100.00
71476;BME280;59286;59.274;17.974;2023-08-31T00:59:21;100102.56;;;13.18;100.00
71476;BME280;59286;59.274;17.974;2023-08-31T01:07:34;100124.81;;;13.41;100.00
71476;BME280;59286;59.274;17.974;2023-08-31T01:10:40;100123.06;;;13.45;100.00
71476;BME280;59286;59.274;17.974;2023-08-31T01:13:14;100125.25;;;13.43;100.00
71476;BME280;59286;59.274;17.974;2023-08-31T01:15:46;100118.75;;;13.41;100.00
71476;BME280;59286;59.274;17.974;2023-08-31T01:18:16;100122.28;;;13.45;100.00
71476;BME280;59286;59.274;17.974;2023-08-31T01:23:53;100119.66;;;13.45;100.00
71476;BME280;59286;59.274;17.974;2023-08-31T01:26:20;100107.38;;;13.37;100.00
71476;BME280;59286;59.274;17.974;2023-08-31T01:28:49;100112.19;;;13.35;100.00
71476;BME280;59286;59.274;17.974;2023-08-31T01:31:15;100108.78;;;13.34;100.00
71476;BME280;59286;59.274;17.974;2023-08-31T01:33:41;100114.97;;;13.50;100.00
71476;BME280;59286;59.274;17.974;2023-08-31T01:36:23;100117.13;;;13.48;100.00
71476;BME280;59286;59.274;17.974;2023-08-31T01:39:37;100105.28;;;13.42;100.00
71476;BME280;59286;59.274;17.974;2023-08-31T01:41:46;100119.16;;;13.51;100.00
71476;BME280;59286;59.274;17.974;2023-08-31T01:44:16;100117.69;;;13.54;100.00
71476;BME280;59286;59.274;17.974;2023-08-31T01:46:45;100115.63;;;13.47;100.00
71476;BME280;59286;59.274;17.974;2023-08-31T01:49:11;100116.50;;;13.51;100.00
71476;BME280;59286;59.274;17.974;2023-08-31T01:51:36;100090.00;;;13.36;100.00
71476;BME280;59286;59.274;17.974;2023-08-31T01:54:02;100113.44;;;13.49;100.00
71476;BME280;59286;59.274;17.974;2023-08-31T01:56:27;100117.13;;;13.48;100.00
71476;BME280;59286;59.274;17.974;2023-08-31T01:58:52;100111.75;;;13.45;100.00
71476;BME280;59286;59.274;17.974;2023-08-31T02:01:18;100110.56;;;13.42;100.00
71476;BME280;59286;59.274;17.974;2023-08-31T02:03:43;100123.50;;;13.47;100.00
71476;BME280;59286;59.274;17.974;2023-08-31T02:06:08;100116.06;;;13.49;100.00
71476;BME280;59286;59.274;17.974;2023-08-31T02:08:34;100116.63;;;13.55;100.00
71476;BME280;59286;59.274;17.974;2023-08-31T02:10:59;100111.75;;;13.45;100.00
71476;BME280;59286;59.274;17.974;2023-08-31T02:13:24;100112.53;;;13.45;100.00
71476;BME280;59286;59.274;17.974;2023-08-31T02:15:53;100107.16;;;13.42;100.00
71476;BME280;59286;59.274;17.974;2023-08-31T02:18:19;100093.88;;;13.38;100.00
71476;BME280;59286;59.274;17.974;2023-08-31T02:20:44;100091.25;;;13.38;100.00
71476;BME280;59286;59.274;17.974;2023-08-31T02:23:10;100101.09;;;13.41;100.00
71476;BME280;59286;59.274;17.974;2023-08-31T02:25:37;100093.53;;;13.40;100.00
71476;BME280;59286;59.274;17.974;2023-08-31T02:28:02;100099.13;;;13.38;100.00
71476;BME280;59286;59.274;17.974;2023-08-31T02:30:28;100094.94;;;13.37;100.00
71476;BME280;59286;59.274;17.974;2023-08-31T02:32:54;100100.03;;;13.42;100.00
71476;BME280;59286;59.274;17.974;2023-08-31T02:35:19;100107.38;;;13.49;100.00
71476;BME280;59286;59.274;17.974;2023-08-31T02:37:44;100100.22;;;13.37;100.00
71476;BME280;59286;59.274;17.974;2023-08-31T02:40:10;100111.75;;;13.45;100.00
71476;BME280;59286;59.274;17.974;2023-08-31T02:42:36;100107.38;;;13.49;100.00
71476;BME280;59286;59.274;17.974;2023-08-31T02:45:01;100107.72;;;13.47;100.00
71476;BME280;59286;59.274;17.974;2023-08-31T02:47:27;100111.44;;;13.46;100.00
71476;BME280;59286;59.274;17.974;2023-08-31T02:49:53;100105.09;;;13.47;100.00
71476;BME280;59286;59.274;17.974;2023-08-31T02:52:18;100110.13;;;13.52;100.00
71476;BME280;59286;59.274;17.974;2023-08-31T02:54:43;100112.78;;;13.52;100.00
71476;BME280;59286;59.274;17.974;2023-08-31T02:57:09;100087.59;;;13.31;100.00
71476;BME280;59286;59.274;17.974;2023-08-31T02:59:34;100103.28;;;13.39;100.00
71476;BME280;59286;59.274;17.974;2023-08-31T03:02:02;100113.81;;;13.39;100.00
71476;BME280;59286;59.274;17.974;2023-08-31T03:04:28;100087.41;;;13.15;100.00
71476;BME280;59286;59.274;17.974;2023-08-31T03:06:53;100079.19;;;13.17;100.00
71476;BME280;59286;59.274;17.974;2023-08-31T03:09:18;100085.44;;;13.12;100.00
71476;BME280;59286;59.274;17.974;2023-08-31T03:11:45;100074.34;;;13.07;100.00
71476;BME280;59286;59.274;17.974;2023-08-31T03:14:10;100087.16;;;13.08;100.00
71476;BME280;59286;59.274;17.974;2023-08-31T03:16:36;100101.69;;;13.14;100.00
71476;BME280;59286;59.274;17.974;2023-08-31T03:19:01;100096.28;;;13.11;100.00
71476;BME280;59286;59.274;17.974;2023-08-31T03:21:26;100093.34;;;13.12;100.00
71476;BME280;59286;59.274;17.974;2023-08-31T03:23:52;100092.44;;;13.08;100.00
71476;BME280;59286;59.274;17.974;2023-08-31T03:26:17;100076.44;;;12.93;100.00
71476;BME280;59286;59.274;17.974;2023-08-31T03:28:42;100074.03;;;13.00;100.00
71476;BME280;59286;59.274;17.974;2023-08-31T03:31:08;100086.91;;;13.01;100.00
71476;BME280;59286;59.274;17.974;2023-08-31T03:33:33;100090.28;;;13.02;100.00
71476;BME280;59286;59.274;17.974;2023-08-31T03:36:02;100076.25;;;12.98;100.00
71476;BME280;59286;59.274;17.974;2023-08-31T03:38:32;100086.13;;;13.01;100.00
71476;BME280;59286;59.274;17.974;2023-08-31T03:40:57;100084.25;;;13.01;100.00
71476;BME280;59286;59.274;17.974;2023-08-31T03:43:23;100083.63;;;13.04;100.00
71476;BME280;59286;59.274;17.974;2023-08-31T03:45:48;100078.56;;;12.99;100.00
71476;BME280;59286;59.274;17.974;2023-08-31T03:48:14;100083.31;;;13.06;100.00
71476;BME280;59286;59.274;17.974;2023-08-31T03:50:39;100087.50;;;13.07;100.00
71476;BME280;59286;59.274;17.974;2023-08-31T03:53:05;100089.16;;;13.11;100.00
71476;BME280;59286;59.274;17.974;2023-08-31T03:55:30;100082.69;;;13.09;100.00
71476;BME280;59286;59.274;17.974;2023-08-31T03:57:55;100072.19;;;13.00;100.00
71476;BME280;59286;59.274;17.974;2023-08-31T04:00:21;100086.84;;;13.10;100.00
71476;BME280;59286;59.274;17.974;2023-08-31T04:02:46;100076.97;;;13.07;100.00
71476;BME280;59286;59.274;17.974;2023-08-31T04:05:12;100092.78;;;13.19;100.00
71476;BME280;59286;59.274;17.974;2023-08-31T04:07:39;100097.94;;;13.15;100.00
71476;BME280;59286;59.274;17.974;2023-08-31T04:10:05;100100.38;;;13.20;100.00
71476;BME280;59286;59.274;17.974;2023-08-31T04:12:31;100079.72;;;13.10;100.00
71476;BME280;59286;59.274;17.974;2023-08-31T04:14:56;100097.44;;;13.22;100.00
71476;BME280;59286;59.274;17.974;2023-08-31T04:17:22;100115.88;;;13.34;100.00
71476;BME280;59286;59.274;17.974;2023-08-31T04:19:47;100092.16;;;13.22;100.00
71476;BME280;59286;59.274;17.974;2023-08-31T04:22:12;100092.16;;;13.22;100.00
71476;BME280;59286;59.274;17.974;2023-08-31T04:24:38;100099.97;;;13.30;100.00
71476;BME280;59286;59.274;17.974;2023-08-31T04:27:03;100105.91;;;13.27;100.00
71476;BME280;59286;59.274;17.974;2023-08-31T04:29:29;100095.81;;;13.29;100.00
71476;BME280;59286;59.274;17.974;2023-08-31T04:31:54;100105.41;;;13.46;100.00
71476;BME280;59286;59.274;17.974;2023-08-31T04:34:19;100105.84;;;13.48;100.00
71476;BME280;59286;59.274;17.974;2023-08-31T04:36:45;100092.56;;;13.44;100.00
71476;BME280;59286;59.274;17.974;2023-08-31T04:39:10;100104.31;;;13.47;100.00
71476;BME280;59286;59.274;17.974;2023-08-31T04:41:36;100096.19;;;13.52;100.00
71476;BME280;59286;59.274;17.974;2023-08-31T04:44:01;100091.50;;;13.57;100.00
71476;BME280;59286;59.274;17.974;2023-08-31T04:46:26;100089.50;;;13.54;100.00
71476;BME280;59286;59.274;17.974;2023-08-31T04:48:52;100089.44;;;13.63;100.00
71476;BME280;59286;59.274;17.974;2023-08-31T04:51:31;100091.31;;;13.63;100.00
71476;BME280;59286;59.274;17.974;2023-08-31T04:53:58;100089.56;;;13.67;100.00
71476;BME280;59286;59.274;17.974;2023-08-31T04:56:23;100074.84;;;13.66;100.00
71476;BME280;59286;59.274;17.974;2023-08-31T04:58:51;100081.78;;;13.70;100.00
71476;BME280;59286;59.274;17.974;2023-08-31T05:01:17;100070.47;;;13.70;100.00
71476;BME280;59286;59.274;17.974;2023-08-31T05:03:42;100079.91;;;13.83;100.00
71476;BME280;59286;59.274;17.974;2023-08-31T05:06:07;100090.78;;;13.93;100.00
71476;BME280;59286;59.274;17.974;2023-08-31T05:08:33;100091.78;;;14.01;100.00
71476;BME280;59286;59.274;17.974;2023-08-31T05:10:59;100075.97;;;14.01;100.00
71476;BME280;59286;59.274;17.974;2023-08-31T05:13:24;100076.84;;;14.05;100.00
71476;BME280;59286;59.274;17.974;2023-08-31T05:15:49;100079.25;;;14.10;100.00
71476;BME280;59286;59.274;17.974;2023-08-31T05:18:15;100078.63;;;14.13;100.00
71476;BME280;59286;59.274;17.974;2023-08-31T05:20:44;100084.78;;;14.17;100.00
71476;BME280;59286;59.274;17.974;2023-08-31T05:23:09;100072.47;;;14.09;100.00
71476;BME280;59286;59.274;17.974;2023-08-31T05:25:35;100079.06;;;14.27;100.00
71476;BME280;59286;59.274;17.974;2023-08-31T05:28:00;100082.91;;;14.41;100.00
71476;BME280;59286;59.274;17.974;2023-08-31T05:30:25;100079.94;;;14.43;100.00
71476;BME280;59286;59.274;17.974;2023-08-31T05:32:51;100093.25;;;14.46;100.00
71476;BME280;59286;59.274;17.974;2023-08-31T05:35:16;100085.66;;;14.45;100.00
71476;BME280;59286;59.274;17.974;2023-08-31T05:37:42;100090.81;;;14.41;100.00
71476;BME280;59286;59.274;17.974;2023-08-31T05:40:08;100089.16;;;14.49;100.00
71476;BME280;59286;59.274;17.974;2023-08-31T05:42:35;100095.75;;;14.55;100.00
71476;BME280;59286;59.274;17.974;2023-08-31T05:45:01;100091.25;;;14.55;100.00
71476;BME280;59286;59.274;17.974;2023-08-31T05:47:26;100097.41;;;14.60;100.00
71476;BME280;59286;59.274;17.974;2023-08-31T05:49:51;100093.00;;;14.64;100.00
71476;BME280;59286;59.274;17.974;2023-08-31T05:52:17;100095.94;;;14.62;100.00
71476;BME280;59286;59.274;17.974;2023-08-31T05:54:42;100112.63;;;14.78;100.00
71476;BME280;59286;59.274;17.974;2023-08-31T05:57:07;100108.00;;;14.75;100.00
71476;BME280;59286;59.274;17.974;2023-08-31T05:59:33;100111.53;;;14.79;100.00
71476;BME280;59286;59.274;17.974;2023-08-31T06:01:58;100119.22;;;14.84;100.00
71476;BME280;59286;59.274;17.974;2023-08-31T06:04:23;100111.16;;;14.93;100.00
71476;BME280;59286;59.274;17.974;2023-08-31T06:06:49;100112.03;;;14.97;100.00
71476;BME280;59286;59.274;17.974;2023-08-31T06:09:17;100124.44;;;15.08;100.00
71476;BME280;59286;59.274;17.974;2023-08-31T06:11:42;100122.97;;;15.11;100.00
71476;BME280;59286;59.274;17.974;2023-08-31T06:14:07;100134.47;;;15.30;100.00
71476;BME280;59286;59.274;17.974;2023-08-31T06:16:33;100136.88;;;15.47;100.00
71476;BME280;59286;59.274;17.974;2023-08-31T06:18:58;100138.44;;;15.64;100.00
71476;BME280;59286;59.274;17.974;2023-08-31T06:21:23;100135.88;;;15.83;100.00
71476;BME280;59286;59.274;17.974;2023-08-31T06:23:49;100129.25;;;16.05;100.00
71476;BME280;59286;59.274;17.974;2023-08-31T06:26:14;100129.84;;;16.14;100.00
71476;BME280;59286;59.274;17.974;2023-08-31T06:28:39;100129.41;;;16.12;100.00
71476;BME280;59286;59.274;17.974;2023-08-31T06:31:04;100132.75;;;16.09;100.00
71476;BME280;59286;59.274;17.974;2023-08-31T06:33:30;100138.88;;;16.44;100.00
71476;BME280;59286;59.274;17.974;2023-08-31T06:35:56;100139.78;;;16.67;100.00
71476;BME280;59286;59.274;17.974;2023-08-31T06:38:21;100136.63;;;16.96;97.88
71476;BME280;59286;59.274;17.974;2023-08-31T06:40:47;100140.53;;;17.02;98.74
71476;BME280;59286;59.274;17.974;2023-08-31T06:43:12;100134.66;;;17.12;99.38
71476;BME280;59286;59.274;17.974;2023-08-31T06:45:38;100129.50;;;17.19;99.41
71476;BME280;59286;59.274;17.974;2023-08-31T06:48:03;100135.50;;;17.16;98.31
71476;BME280;59286;59.274;17.974;2023-08-31T06:50:29;100138.16;;;16.97;98.49
71476;BME280;59286;59.274;17.974;2023-08-31T06:52:54;100137.13;;;17.21;98.65
71476;BME280;59286;59.274;17.974;2023-08-31T06:55:20;100123.78;;;17.36;97.38
71476;BME280;59286;59.274;17.974;2023-08-31T06:57:45;100134.81;;;17.19;96.83
71476;BME280;59286;59.274;17.974;2023-08-31T07:00:11;100126.72;;;17.31;97.20
71476;BME280;59286;59.274;17.974;2023-08-31T07:02:39;100120.38;;;17.36;98.13
71476;BME280;59286;59.274;17.974;2023-08-31T07:05:06;100109.38;;;17.34;94.44
71476;BME280;59286;59.274;17.974;2023-08-31T07:07:31;100122.75;;;17.41;94.25
71476;BME280;59286;59.274;17.974;2023-08-31T07:09:57;100114.66;;;17.34;95.24
71476;BME280;59286;59.274;17.974;2023-08-31T07:12:22;100130.06;;;17.67;95.42
71476;BME280;59286;59.274;17.974;2023-08-31T07:14:48;100113.25;;;17.82;93.75
71476;BME280;59286;59.274;17.974;2023-08-31T07:17:13;100095.28;;;17.72;92.53
71476;BME280;59286;59.274;17.974;2023-08-31T07:19:38;100116.06;;;17.70;92.66
71476;BME280;59286;59.274;17.974;2023-08-31T07:22:04;100118.47;;;17.75;94.47
71476;BME280;59286;59.274;17.974;2023-08-31T07:24:31;100111.59;;;17.74;93.57
71476;BME280;59286;59.274;17.974;2023-08-31T07:26:56;100114.16;;;17.48;92.02
71476;BME280;59286;59.274;17.974;2023-08-31T07:29:22;100118.41;;;17.33;93.15
71476;BME280;59286;59.274;17.974;2023-08-31T07:31:47;100115.41;;;17.34;92.90
71476;BME280;59286;59.274;17.974;2023-08-31T07:34:12;100102.03;;;17.47;95.26
71476;BME280;59286;59.274;17.974;2023-08-31T07:36:38;100109.31;;;17.95;92.99
71476;BME280;59286;59.274;17.974;2023-08-31T07:39:04;100110.06;;;18.18;90.44
71476;BME280;59286;59.274;17.974;2023-08-31T07:41:30;100113.34;;;18.34;89.45
71476;BME280;59286;59.274;17.974;2023-08-31T07:43:55;100105.53;;;18.45;88.38
71476;BME280;59286;59.274;17.974;2023-08-31T07:46:21;100111.47;;;18.61;88.57
71476;BME280;59286;59.274;17.974;2023-08-31T07:48:46;100111.69;;;18.78;86.98
71476;BME280;59286;59.274;17.974;2023-08-31T07:51:13;100114.03;;;18.83;86.20
71476;BME280;59286;59.274;17.974;2023-08-31T07:53:39;100112.34;;;18.68;87.09
71476;BME280;59286;59.274;17.974;2023-08-31T07:56:04;100103.63;;;18.71;85.52
71476;BME280;59286;59.274;17.974;2023-08-31T07:58:29;100104.88;;;18.51;86.12
71476;BME280;59286;59.274;17.974;2023-08-31T08:00:55;100114.66;;;18.73;89.02
71476;BME280;59286;59.274;17.974;2023-08-31T08:03:22;100109.00;;;19.08;87.57
71476;BME280;59286;59.274;17.974;2023-08-31T08:05:47;100105.19;;;19.05;88.64
71476;BME280;59286;59.274;17.974;2023-08-31T08:08:13;100095.38;;;18.80;84.81
71476;BME280;59286;59.274;17.974;2023-08-31T08:10:38;100107.59;;;18.55;87.89
71476;BME280;59286;59.274;17.974;2023-08-31T08:13:04;100093.13;;;18.52;86.76
71476;BME280;59286;59.274;17.974;2023-08-31T08:15:30;100095.94;;;18.92;88.08
71476;BME280;59286;59.274;17.974;2023-08-31T08:17:55;100101.66;;;19.27;85.79
71476;BME280;59286;59.274;17.974;2023-08-31T08:20:23;100101.09;;;19.45;84.33
71476;BME280;59286;59.274;17.974;2023-08-31T08:22:48;100106.59;;;19.29;83.80
71476;BME280;59286;59.274;17.974;2023-08-31T08:25:17;100107.69;;;19.24;82.74
71476;BME280;59286;59.274;17.974;2023-08-31T08:27:42;100100.34;;;19.48;84.81
71476;BME280;59286;59.274;17.974;2023-08-31T08:30:08;100100.56;;;19.69;82.39
71476;BME280;59286;59.274;17.974;2023-08-31T08:32:34;100093.03;;;19.38;81.45
71476;BME280;59286;59.274;17.974;2023-08-31T08:35:00;100098.41;;;19.11;83.27
71476;BME280;59286;59.274;17.974;2023-08-31T08:37:25;100094.97;;;19.07;84.01
71476;BME280;59286;59.274;17.974;2023-08-31T08:39:51;100096.59;;;19.19;85.28
71476;BME280;59286;59.274;17.974;2023-08-31T08:42:17;100091.59;;;19.44;81.60
71476;BME280;59286;59.274;17.974;2023-08-31T08:44:43;100098.72;;;19.36;82.00
71476;BME280;59286;59.274;17.974;2023-08-31T08:47:09;100105.34;;;19.19;84.96
71476;BME280;59286;59.274;17.974;2023-08-31T08:49:36;100091.94;;;19.42;83.80
71476;BME280;59286;59.274;17.974;2023-08-31T08:52:01;100098.41;;;19.41;80.42
71476;BME280;59286;59.274;17.974;2023-08-31T08:54:27;100107.59;;;19.17;81.87
71476;BME280;59286;59.274;17.974;2023-08-31T08:57:06;100090.78;;;19.06;81.72
71476;BME280;59286;59.274;17.974;2023-08-31T08:59:31;100078.94;;;19.00;80.84
71476;BME280;59286;59.274;17.974;2023-08-31T09:01:57;100103.84;;;19.18;83.35
71476;BME280;59286;59.274;17.974;2023-08-31T09:04:22;100100.91;;;19.30;81.90
71476;BME280;59286;59.274;17.974;2023-08-31T09:06:48;100096.31;;;19.61;83.08
71476;BME280;59286;59.274;17.974;2023-08-31T09:09:15;100098.72;;;19.73;83.78
71476;BME280;59286;59.274;17.974;2023-08-31T09:11:42;100071.00;;;19.81;82.76
71476;BME280;59286;59.274;17.974;2023-08-31T09:14:19;100104.63;;;20.03;80.86
71476;BME280;59286;59.274;17.974;2023-08-31T09:16:49;100092.47;;;20.02;76.98
71476;BME280;59286;59.274;17.974;2023-08-31T09:19:25;100098.97;;;20.04;79.97
71476;BME280;59286;59.274;17.974;2023-08-31T09:21:56;100098.16;;;19.97;77.01
71476;BME280;59286;59.274;17.974;2023-08-31T09:24:22;100097.41;;;20.00;76.04
71476;BME280;59286;59.274;17.974;2023-08-31T09:26:52;100095.16;;;20.05;78.93
71476;BME280;59286;59.274;17.974;2023-08-31T09:29:17;100093.06;;;19.81;77.78
71476;BME280;59286;59.274;17.974;2023-08-31T09:31:43;100097.69;;;19.88;77.16
71476;BME280;59286;59.274;17.974;2023-08-31T09:34:10;100100.81;;;20.00;78.52
71476;BME280;59286;59.274;17.974;2023-08-31T09:36:36;100104.56;;;19.92;78.77
71476;BME280;59286;59.274;17.974;2023-08-31T09:39:02;100096.94;;;19.91;79.36
71476;BME280;59286;59.274;17.974;2023-08-31T09:41:27;100096.56;;;19.89;78.35
71476;BME280;59286;59.274;17.974;2023-08-31T09:43:53;100083.88;;;19.75;75.77
71476;BME280;59286;59.274;17.974;2023-08-31T09:46:21;100092.63;;;19.72;75.17
71476;BME280;59286;59.274;17.974;2023-08-31T09:48:47;100083.34;;;19.56;78.30
71476;BME280;59286;59.274;17.974;2023-08-31T09:51:14;100084.47;;;19.55;78.96
71476;BME280;59286;59.274;17.974;2023-08-31T09:53:44;100078.84;;;19.60;77.80
71476;BME280;59286;59.274;17.974;2023-08-31T09:56:18;100083.91;;;19.79;80.08
71476;BME280;59286;59.274;17.974;2023-08-31T09:58:46;100095.09;;;19.55;74.90
71476;BME280;59286;59.274;17.974;2023-08-31T10:01:11;100075.56;;;19.37;75.58
71476;BME280;59286;59.274;17.974;2023-08-31T10:03:37;100048.03;;;19.18;75.88
71476;BME280;59286;59.274;17.974;2023-08-31T10:06:03;100062.63;;;19.32;73.90
71476;BME280;59286;59.274;17.974;2023-08-31T10:08:29;100062.25;;;19.33;74.80
71476;BME280;59286;59.274;17.974;2023-08-31T10:10:59;100094.56;;;19.79;73.87
71476;BME280;59286;59.274;17.974;2023-08-31T10:13:25;100081.69;;;19.84;75.23
71476;BME280;59286;59.274;17.974;2023-08-31T10:15:52;100106.84;;;19.94;71.76
71476;BME280;59286;59.274;17.974;2023-08-31T10:18:18;100074.47;;;19.85;72.44
71476;BME280;59286;59.274;17.974;2023-08-31T10:20:43;100102.16;;;20.24;72.76
71476;BME280;59286;59.274;17.974;2023-08-31T10:23:10;100100.31;;;20.35;73.88
71476;BME280;59286;59.274;17.974;2023-08-31T10:28:24;100107.72;;;20.66;71.35
71476;BME280;59286;59.274;17.974;2023-08-31T10:31:22;100117.25;;;20.64;68.98
71476;BME280;59286;59.274;17.974;2023-08-31T10:34:04;100106.88;;;20.52;72.38
71476;BME280;59286;59.274;17.974;2023-08-31T10:36:40;100121.66;;;20.42;70.36
71476;BME280;59286;59.274;17.974;2023-08-31T10:41:36;100102.31;;;19.98;70.31
71476;BME280;59286;59.274;17.974;2023-08-31T10:44:02;100102.91;;;20.21;72.53
71476;BME280;59286;59.274;17.974;2023-08-31T10:46:43;100094.28;;;19.91;68.60
71476;BME280;59286;59.274;17.974;2023-08-31T10:51:38;100098.34;;;19.74;71.37
71476;BME280;59286;59.274;17.974;2023-08-31T10:56:30;100090.03;;;19.83;72.40
71476;BME280;59286;59.274;17.974;2023-08-31T10:59:00;100062.31;;;19.84;72.72
71476;BME280;59286;59.274;17.974;2023-08-31T11:04:16;100104.13;;;20.34;69.56
71476;BME280;59286;59.274;17.974;2023-08-31T11:06:41;100111.72;;;20.29;68.73
71476;BME280;59286;59.274;17.974;2023-08-31T11:09:18;100100.50;;;20.09;68.64
71476;BME280;59286;59.274;17.974;2023-08-31T11:11:43;100087.31;;;19.76;69.89
71476;BME280;59286;59.274;17.974;2023-08-31T11:14:09;100091.59;;;19.84;69.13
71476;BME280;59286;59.274;17.974;2023-08-31T11:16:38;100093.03;;;19.78;69.49
71476;BME280;59286;59.274;17.974;2023-08-31T11:19:03;100097.28;;;19.86;69.92
71476;BME280;59286;59.274;17.974;2023-08-31T11:21:29;100065.94;;;19.62;71.78
71476;BME280;59286;59.274;17.974;2023-08-31T11:23:56;100073.25;;;19.75;69.93
71476;BME280;59286;59.274;17.974;2023-08-31T11:26:25;100054.22;;;19.73;71.83
71476;BME280;59286;59.274;17.974;2023-08-31T11:28:51;100063.03;;;19.81;70.60
71476;BME280;59286;59.274;17.974;2023-08-31T11:31:23;100055.44;;;19.79;70.32
71476;BME280;59286;59.274;17.974;2023-08-31T11:33:49;100065.69;;;19.81;70.31
71476;BME280;59286;59.274;17.974;2023-08-31T11:36:14;100086.25;;;19.84;67.82
71476;BME280;59286;59.274;17.974;2023-08-31T11:38:47;100078.56;;;19.75;66.38
71476;BME280;59286;59.274;17.974;2023-08-31T11:41:13;100089.94;;;19.69;68.70
71476;BME280;59286;59.274;17.974;2023-08-31T11:43:39;100081.19;;;19.68;69.46
71476;BME280;59286;59.274;17.974;2023-08-31T11:46:04;100075.44;;;19.63;68.96
71476;BME280;59286;59.274;17.974;2023-08-31T11:48:31;100083.50;;;19.77;68.18
71476;BME280;59286;59.274;17.974;2023-08-31T11:50:58;100081.66;;;19.81;64.91
71476;BME280;59286;59.274;17.974;2023-08-31T11:53:24;100049.59;;;19.60;64.93
71476;BME280;59286;59.274;17.974;2023-08-31T11:55:51;100071.75;;;19.74;66.97
71476;BME280;59286;59.274;17.974;2023-08-31T11:58:17;100080.50;;;19.75;65.81
71476;BME280;59286;59.274;17.974;2023-08-31T12:00:54;100081.72;;;19.88;67.99
71476;BME280;59286;59.274;17.974;2023-08-31T12:03:19;100051.91;;;19.65;67.52
71476;BME280;59286;59.274;17.974;2023-08-31T12:05:45;100074.41;;;19.78;66.77
71476;BME280;59286;59.274;17.974;2023-08-31T12:08:12;100082.09;;;19.90;69.61
71476;BME280;59286;59.274;17.974;2023-08-31T12:10:41;100067.34;;;19.96;67.04
71476;BME280;59286;59.274;17.974;2023-08-31T12:13:08;100071.97;;;20.06;68.06
71476;BME280;59286;59.274;17.974;2023-08-31T12:15:34;100070.88;;;20.14;66.26
71476;BME280;59286;59.274;17.974;2023-08-31T12:18:12;100077.81;;;20.22;67.08
71476;BME280;59286;59.274;17.974;2023-08-31T12:20:54;100079.78;;;20.32;67.83
71476;BME280;59286;59.274;17.974;2023-08-31T12:23:20;100052.63;;;20.12;68.53
71476;BME280;59286;59.274;17.974;2023-08-31T12:25:54;100083.53;;;20.24;65.24
71476;BME280;59286;59.274;17.974;2023-08-31T12:28:21;100079.75;;;20.29;67.62
71476;BME280;59286;59.274;17.974;2023-08-31T12:30:53;100074.47;;;20.32;68.49
71476;BME280;59286;59.274;17.974;2023-08-31T12:33:20;100097.59;;;20.21;63.74
71476;BME280;59286;59.274;17.974;2023-08-31T12:35:46;100081.09;;;20.08;66.81
71476;BME280;59286;59.274;17.974;2023-08-31T12:38:12;100086.38;;;20.01;66.04
71476;BME280;59286;59.274;17.974;2023-08-31T12:40:38;100082.63;;;20.09;67.77
71476;BME280;59286;59.274;17.974;2023-08-31T12:43:04;100086.63;;;20.33;70.27
71476;BME280;59286;59.274;17.974;2023-08-31T12:45:30;100084.44;;;20.46;70.56
71476;BME280;59286;59.274;17.974;2023-08-31T12:47:55;100095.13;;;20.56;68.71
71476;BME280;59286;59.274;17.974;2023-08-31T12:50:20;100093.19;;;20.53;68.81
71476;BME280;59286;59.274;17.974;2023-08-31T12:52:46;100076.84;;;20.51;67.30
71476;BME280;59286;59.274;17.974;2023-08-31T12:55:15;100092.13;;;20.65;70.19